LKCV weather

Čáslav Air Base
Čáslav, Central Bohemian Region, Czechia

Public forecast

Using degrees Celsius for public forecast. Weather courtesy of forecast.io.

METAR (pilot weather report)

Retrieved 2019/05/26 16:00 UTC (28 minutes ago):

LKCV 261600Z 19003KT 9999 SCT048 SCT220 22/12 Q1012 NOSIG RMK BLU BLU

TAF (pilot weather forecast)

Retrieved 2019/05/26 12:06 UTC (4 hours ago):

TAF LKCV 261100Z 2612/2712 33004KT CAVOK BECMG 2612/2614 24008KT TEMPO 2612/2616 SCT033TCU PROB30 TEMPO 2612/2616 25017G27KT 8000 SHRA BKN030TCU